sensor_id;sensor_type;location;lat;lon;timestamp;P1;durP1;ratioP1;P2;durP2;ratioP2
74347;SDS011;62778;50.406;10.008;2022-10-31T00:00:26;8.10;;;2.63;;
74347;SDS011;62778;50.406;10.008;2022-10-31T00:01:26;6.80;;;2.40;;
74347;SDS011;62778;50.406;10.008;2022-10-31T00:02:22;7.90;;;2.87;;
74347;SDS011;62778;50.406;10.008;2022-10-31T00:03:18;9.32;;;2.25;;
74347;SDS011;62778;50.406;10.008;2022-10-31T00:04:13;8.43;;;2.53;;
74347;SDS011;62778;50.406;10.008;2022-10-31T00:05:08;9.10;;;2.97;;
74347;SDS011;62778;50.406;10.008;2022-10-31T00:06:04;9.17;;;2.80;;
74347;SDS011;62778;50.406;10.008;2022-10-31T00:06:59;7.47;;;2.60;;
74347;SDS011;62778;50.406;10.008;2022-10-31T00:07:54;7.07;;;2.43;;
74347;SDS011;62778;50.406;10.008;2022-10-31T00:08:54;9.17;;;3.03;;
74347;SDS011;62778;50.406;10.008;2022-10-31T00:09:51;10.35;;;2.60;;
74347;SDS011;62778;50.406;10.008;2022-10-31T00:10:46;9.13;;;2.80;;
74347;SDS011;62778;50.406;10.008;2022-10-31T00:11:41;9.88;;;2.85;;
74347;SDS011;62778;50.406;10.008;2022-10-31T00:12:37;8.47;;;3.23;;
74347;SDS011;62778;50.406;10.008;2022-10-31T00:13:32;11.17;;;3.20;;
74347;SDS011;62778;50.406;10.008;2022-10-31T00:14:27;7.13;;;2.63;;
74347;SDS011;62778;50.406;10.008;2022-10-31T00:15:23;10.10;;;3.17;;
74347;SDS011;62778;50.406;10.008;2022-10-31T00:16:22;8.25;;;2.40;;
74347;SDS011;62778;50.406;10.008;2022-10-31T00:17:19;7.23;;;2.73;;
74347;SDS011;62778;50.406;10.008;2022-10-31T00:18:14;9.35;;;2.90;;
74347;SDS011;62778;50.406;10.008;2022-10-31T00:19:09;7.83;;;2.70;;
74347;SDS011;62778;50.406;10.008;2022-10-31T00:20:05;8.53;;;2.80;;
74347;SDS011;62778;50.406;10.008;2022-10-31T00:21:01;11.93;;;3.03;;
74347;SDS011;62778;50.406;10.008;2022-10-31T00:21:58;8.95;;;2.83;;
74347;SDS011;62778;50.406;10.008;2022-10-31T00:22:53;7.43;;;2.97;;
74347;SDS011;62778;50.406;10.008;2022-10-31T00:23:48;6.88;;;2.50;;
74347;SDS011;62778;50.406;10.008;2022-10-31T00:24:44;7.77;;;2.57;;
74347;SDS011;62778;50.406;10.008;2022-10-31T00:25:39;9.13;;;2.90;;
74347;SDS011;62778;50.406;10.008;2022-10-31T00:26:35;9.43;;;2.53;;
74347;SDS011;62778;50.406;10.008;2022-10-31T00:27:30;5.70;;;2.27;;
74347;SDS011;62778;50.406;10.008;2022-10-31T00:28:25;8.93;;;2.90;;
74347;SDS011;62778;50.406;10.008;2022-10-31T00:29:21;6.50;;;2.43;;
74347;SDS011;62778;50.406;10.008;2022-10-31T00:30:16;7.68;;;2.38;;
74347;SDS011;62778;50.406;10.008;2022-10-31T00:31:12;8.60;;;2.70;;
74347;SDS011;62778;50.406;10.008;2022-10-31T00:32:07;7.25;;;2.53;;
74347;SDS011;62778;50.406;10.008;2022-10-31T00:33:03;8.73;;;2.57;;
74347;SDS011;62778;50.406;10.008;2022-10-31T00:34:00;10.50;;;2.83;;
74347;SDS011;62778;50.406;10.008;2022-10-31T00:34:57;7.88;;;2.60;;
74347;SDS011;62778;50.406;10.008;2022-10-31T00:35:53;8.97;;;2.60;;
74347;SDS011;62778;50.406;10.008;2022-10-31T00:36:48;9.20;;;2.80;;
74347;SDS011;62778;50.406;10.008;2022-10-31T00:37:43;8.60;;;3.00;;
74347;SDS011;62778;50.406;10.008;2022-10-31T00:38:39;7.63;;;2.67;;
74347;SDS011;62778;50.406;10.008;2022-10-31T00:39:34;8.03;;;3.17;;
74347;SDS011;62778;50.406;10.008;2022-10-31T00:40:30;7.00;;;2.97;;
74347;SDS011;62778;50.406;10.008;2022-10-31T00:41:25;8.17;;;2.60;;
74347;SDS011;62778;50.406;10.008;2022-10-31T00:42:20;6.73;;;3.10;;
74347;SDS011;62778;50.406;10.008;2022-10-31T00:43:16;9.07;;;3.60;;
74347;SDS011;62778;50.406;10.008;2022-10-31T00:44:11;9.50;;;3.23;;
74347;SDS011;62778;50.406;10.008;2022-10-31T00:45:07;8.33;;;3.20;;
74347;SDS011;62778;50.406;10.008;2022-10-31T00:46:05;9.55;;;3.20;;
74347;SDS011;62778;50.406;10.008;2022-10-31T00:47:01;9.05;;;3.20;;
74347;SDS011;62778;50.406;10.008;2022-10-31T00:47:56;11.53;;;3.10;;
74347;SDS011;62778;50.406;10.008;2022-10-31T00:48:52;9.57;;;3.30;;
74347;SDS011;62778;50.406;10.008;2022-10-31T00:49:47;10.13;;;3.30;;
74347;SDS011;62778;50.406;10.008;2022-10-31T00:50:42;8.30;;;3.13;;
74347;SDS011;62778;50.406;10.008;2022-10-31T00:51:38;8.50;;;3.07;;
74347;SDS011;62778;50.406;10.008;2022-10-31T00:52:33;10.70;;;3.70;;
74347;SDS011;62778;50.406;10.008;2022-10-31T00:53:29;9.30;;;3.27;;
74347;SDS011;62778;50.406;10.008;2022-10-31T00:54:24;9.30;;;2.90;;
74347;SDS011;62778;50.406;10.008;2022-10-31T00:55:19;8.33;;;3.27;;
74347;SDS011;62778;50.406;10.008;2022-10-31T00:56:14;8.37;;;3.20;;
74347;SDS011;62778;50.406;10.008;2022-10-31T00:57:10;8.13;;;3.67;;
74347;SDS011;62778;50.406;10.008;2022-10-31T00:58:05;9.27;;;3.40;;
74347;SDS011;62778;50.406;10.008;2022-10-31T00:59:00;8.87;;;3.13;;
74347;SDS011;62778;50.406;10.008;2022-10-31T00:59:56;8.57;;;2.87;;
74347;SDS011;62778;50.406;10.008;2022-10-31T01:00:51;9.37;;;3.23;;
74347;SDS011;62778;50.406;10.008;2022-10-31T01:01:49;7.93;;;3.10;;
74347;SDS011;62778;50.406;10.008;2022-10-31T01:02:45;8.40;;;3.30;;
74347;SDS011;62778;50.406;10.008;2022-10-31T01:03:40;10.93;;;3.10;;
74347;SDS011;62778;50.406;10.008;2022-10-31T01:04:35;12.30;;;3.13;;
74347;SDS011;62778;50.406;10.008;2022-10-31T01:05:31;7.23;;;2.63;;
74347;SDS011;62778;50.406;10.008;2022-10-31T01:06:26;6.93;;;2.73;;
74347;SDS011;62778;50.406;10.008;2022-10-31T01:07:22;8.80;;;2.63;;
74347;SDS011;62778;50.406;10.008;2022-10-31T01:08:17;8.10;;;2.70;;
74347;SDS011;62778;50.406;10.008;2022-10-31T01:09:12;8.70;;;2.60;;
74347;SDS011;62778;50.406;10.008;2022-10-31T01:10:08;7.47;;;2.87;;
74347;SDS011;62778;50.406;10.008;2022-10-31T01:11:06;7.72;;;3.30;;
74347;SDS011;62778;50.406;10.008;2022-10-31T01:12:06;9.32;;;3.00;;
74347;SDS011;62778;50.406;10.008;2022-10-31T01:13:02;8.40;;;2.88;;
74347;SDS011;62778;50.406;10.008;2022-10-31T01:13:57;8.87;;;3.20;;
74347;SDS011;62778;50.406;10.008;2022-10-31T01:14:52;11.20;;;3.43;;
74347;SDS011;62778;50.406;10.008;2022-10-31T01:15:53;9.32;;;3.10;;
74347;SDS011;62778;50.406;10.008;2022-10-31T01:16:49;9.07;;;2.80;;
74347;SDS011;62778;50.406;10.008;2022-10-31T01:17:44;9.13;;;3.40;;
74347;SDS011;62778;50.406;10.008;2022-10-31T01:18:39;10.57;;;3.60;;
74347;SDS011;62778;50.406;10.008;2022-10-31T01:19:35;9.33;;;3.50;;
74347;SDS011;62778;50.406;10.008;2022-10-31T01:20:30;9.97;;;3.23;;
74347;SDS011;62778;50.406;10.008;2022-10-31T01:21:26;9.63;;;3.10;;
74347;SDS011;62778;50.406;10.008;2022-10-31T01:22:22;12.70;;;3.60;;
74347;SDS011;62778;50.406;10.008;2022-10-31T01:23:18;8.35;;;3.58;;
74347;SDS011;62778;50.406;10.008;2022-10-31T01:24:13;8.97;;;3.87;;
74347;SDS011;62778;50.406;10.008;2022-10-31T01:25:11;9.73;;;4.07;;
74347;SDS011;62778;50.406;10.008;2022-10-31T01:27:03;8.90;;;3.42;;
74347;SDS011;62778;50.406;10.008;2022-10-31T01:27:58;12.63;;;3.80;;
74347;SDS011;62778;50.406;10.008;2022-10-31T01:28:55;10.27;;;3.63;;
74347;SDS011;62778;50.406;10.008;2022-10-31T01:29:51;12.02;;;4.10;;
74347;SDS011;62778;50.406;10.008;2022-10-31T01:30:47;9.33;;;3.73;;
74347;SDS011;62778;50.406;10.008;2022-10-31T01:31:42;10.30;;;3.70;;
74347;SDS011;62778;50.406;10.008;2022-10-31T01:32:37;8.53;;;3.83;;
74347;SDS011;62778;50.406;10.008;2022-10-31T01:33:33;7.47;;;3.20;;
74347;SDS011;62778;50.406;10.008;2022-10-31T01:34:29;8.95;;;3.42;;
74347;SDS011;62778;50.406;10.008;2022-10-31T01:35:24;13.50;;;3.50;;
74347;SDS011;62778;50.406;10.008;2022-10-31T01:36:21;9.50;;;3.53;;
74347;SDS011;62778;50.406;10.008;2022-10-31T01:37:21;7.53;;;3.63;;
74347;SDS011;62778;50.406;10.008;2022-10-31T01:38:16;8.45;;;3.90;;
74347;SDS011;62778;50.406;10.008;2022-10-31T01:39:12;9.83;;;3.50;;
74347;SDS011;62778;50.406;10.008;2022-10-31T01:40:09;11.15;;;4.18;;
74347;SDS011;62778;50.406;10.008;2022-10-31T01:41:05;9.57;;;3.53;;
74347;SDS011;62778;50.406;10.008;2022-10-31T01:42:00;11.68;;;4.15;;
74347;SDS011;62778;50.406;10.008;2022-10-31T01:42:56;9.67;;;3.80;;
74347;SDS011;62778;50.406;10.008;2022-10-31T01:45:00;12.23;;;4.18;;
74347;SDS011;62778;50.406;10.008;2022-10-31T01:45:56;10.00;;;3.33;;
74347;SDS011;62778;50.406;10.008;2022-10-31T01:47:58;11.02;;;3.67;;
74347;SDS011;62778;50.406;10.008;2022-10-31T01:48:54;8.23;;;3.50;;
74347;SDS011;62778;50.406;10.008;2022-10-31T01:49:53;10.25;;;3.45;;
74347;SDS011;62778;50.406;10.008;2022-10-31T01:50:51;7.97;;;3.78;;
74347;SDS011;62778;50.406;10.008;2022-10-31T01:51:49;10.15;;;3.88;;
74347;SDS011;62778;50.406;10.008;2022-10-31T01:52:47;9.52;;;3.58;;
74347;SDS011;62778;50.406;10.008;2022-10-31T01:53:44;10.13;;;4.05;;
74347;SDS011;62778;50.406;10.008;2022-10-31T01:54:41;9.57;;;4.05;;
74347;SDS011;62778;50.406;10.008;2022-10-31T01:55:40;8.45;;;3.53;;
74347;SDS011;62778;50.406;10.008;2022-10-31T01:56:37;7.37;;;3.57;;
74347;SDS011;62778;50.406;10.008;2022-10-31T01:57:35;12.13;;;4.03;;
74347;SDS011;62778;50.406;10.008;2022-10-31T01:58:30;9.68;;;3.60;;
74347;SDS011;62778;50.406;10.008;2022-10-31T01:59:27;10.35;;;3.97;;
74347;SDS011;62778;50.406;10.008;2022-10-31T02:00:25;9.63;;;3.30;;
74347;SDS011;62778;50.406;10.008;2022-10-31T02:01:20;10.30;;;3.30;;
74347;SDS011;62778;50.406;10.008;2022-10-31T02:02:16;9.83;;;3.30;;
74347;SDS011;62778;50.406;10.008;2022-10-31T02:03:12;10.07;;;3.43;;
74347;SDS011;62778;50.406;10.008;2022-10-31T02:04:07;8.82;;;3.80;;
74347;SDS011;62778;50.406;10.008;2022-10-31T02:05:07;8.73;;;3.77;;
74347;SDS011;62778;50.406;10.008;2022-10-31T02:06:06;6.68;;;3.20;;
74347;SDS011;62778;50.406;10.008;2022-10-31T02:07:10;8.68;;;3.38;;
74347;SDS011;62778;50.406;10.008;2022-10-31T02:08:11;9.43;;;3.40;;
74347;SDS011;62778;50.406;10.008;2022-10-31T02:09:09;9.30;;;3.72;;
74347;SDS011;62778;50.406;10.008;2022-10-31T02:10:05;10.35;;;3.70;;
74347;SDS011;62778;50.406;10.008;2022-10-31T02:11:00;8.20;;;3.50;;
74347;SDS011;62778;50.406;10.008;2022-10-31T02:11:57;10.85;;;3.50;;
74347;SDS011;62778;50.406;10.008;2022-10-31T02:12:53;10.60;;;3.53;;
74347;SDS011;62778;50.406;10.008;2022-10-31T02:13:50;8.63;;;3.40;;
74347;SDS011;62778;50.406;10.008;2022-10-31T02:14:45;9.97;;;3.90;;
74347;SDS011;62778;50.406;10.008;2022-10-31T02:15:41;8.23;;;3.27;;
74347;SDS011;62778;50.406;10.008;2022-10-31T02:16:38;9.55;;;3.17;;
74347;SDS011;62778;50.406;10.008;2022-10-31T02:17:33;10.27;;;3.10;;
74347;SDS011;62778;50.406;10.008;2022-10-31T02:18:29;9.57;;;3.75;;
74347;SDS011;62778;50.406;10.008;2022-10-31T02:20:21;9.27;;;3.37;;
74347;SDS011;62778;50.406;10.008;2022-10-31T02:22:40;9.85;;;3.55;;
74347;SDS011;62778;50.406;10.008;2022-10-31T02:30:11;9.05;;;2.88;;
74347;SDS011;62778;50.406;10.008;2022-10-31T02:32:36;8.00;;;2.60;;
74347;SDS011;62778;50.406;10.008;2022-10-31T02:33:41;8.15;;;3.25;;
74347;SDS011;62778;50.406;10.008;2022-10-31T02:34:52;7.32;;;2.70;;
74347;SDS011;62778;50.406;10.008;2022-10-31T02:36:04;11.18;;;3.55;;
74347;SDS011;62778;50.406;10.008;2022-10-31T02:37:05;8.27;;;3.60;;
74347;SDS011;62778;50.406;10.008;2022-10-31T02:38:06;9.65;;;3.85;;
74347;SDS011;62778;50.406;10.008;2022-10-31T02:40:23;9.77;;;3.38;;
74347;SDS011;62778;50.406;10.008;2022-10-31T02:41:35;13.50;;;3.40;;
74347;SDS011;62778;50.406;10.008;2022-10-31T02:42:38;11.73;;;3.95;;
74347;SDS011;62778;50.406;10.008;2022-10-31T02:43:40;8.73;;;3.08;;
74347;SDS011;62778;50.406;10.008;2022-10-31T02:45:46;12.07;;;3.72;;
74347;SDS011;62778;50.406;10.008;2022-10-31T02:47:44;8.60;;;3.43;;
74347;SDS011;62778;50.406;10.008;2022-10-31T02:48:39;10.32;;;4.00;;
74347;SDS011;62778;50.406;10.008;2022-10-31T02:50:20;11.88;;;3.58;;
74347;SDS011;62778;50.406;10.008;2022-10-31T02:50:59;9.80;;;3.22;;
74347;SDS011;62778;50.406;10.008;2022-10-31T02:51:56;10.98;;;3.88;;
74347;SDS011;62778;50.406;10.008;2022-10-31T02:52:51;10.97;;;3.80;;
74347;SDS011;62778;50.406;10.008;2022-10-31T02:53:47;9.80;;;3.47;;
74347;SDS011;62778;50.406;10.008;2022-10-31T02:54:42;8.53;;;3.73;;
74347;SDS011;62778;50.406;10.008;2022-10-31T02:55:42;10.20;;;3.92;;
74347;SDS011;62778;50.406;10.008;2022-10-31T02:56:42;8.80;;;4.30;;
74347;SDS011;62778;50.406;10.008;2022-10-31T02:57:37;10.13;;;4.03;;
74347;SDS011;62778;50.406;10.008;2022-10-31T02:58:35;10.82;;;3.40;;
74347;SDS011;62778;50.406;10.008;2022-10-31T02:59:33;9.13;;;3.90;;
74347;SDS011;62778;50.406;10.008;2022-10-31T03:00:31;12.02;;;3.60;;
74347;SDS011;62778;50.406;10.008;2022-10-31T03:01:45;11.97;;;4.27;;
74347;SDS011;62778;50.406;10.008;2022-10-31T03:06:06;10.00;;;3.80;;
74347;SDS011;62778;50.406;10.008;2022-10-31T03:08:13;8.38;;;3.70;;
74347;SDS011;62778;50.406;10.008;2022-10-31T03:10:55;11.35;;;3.80;;
74347;SDS011;62778;50.406;10.008;2022-10-31T03:14:10;9.50;;;4.28;;
74347;SDS011;62778;50.406;10.008;2022-10-31T03:17:22;10.90;;;3.75;;
74347;SDS011;62778;50.406;10.008;2022-10-31T03:18:34;8.02;;;3.67;;
74347;SDS011;62778;50.406;10.008;2022-10-31T03:19:43;9.80;;;3.65;;
74347;SDS011;62778;50.406;10.008;2022-10-31T03:20:42;8.18;;;3.40;;
74347;SDS011;62778;50.406;10.008;2022-10-31T03:21:52;8.60;;;3.47;;
74347;SDS011;62778;50.406;10.008;2022-10-31T03:22:50;10.52;;;3.97;;
74347;SDS011;62778;50.406;10.008;2022-10-31T03:23:47;11.23;;;4.07;;
74347;SDS011;62778;50.406;10.008;2022-10-31T03:24:45;8.75;;;3.85;;
74347;SDS011;62778;50.406;10.008;2022-10-31T03:25:42;11.33;;;3.93;;
74347;SDS011;62778;50.406;10.008;2022-10-31T03:26:40;9.35;;;3.72;;
74347;SDS011;62778;50.406;10.008;2022-10-31T03:27:38;14.55;;;4.07;;
74347;SDS011;62778;50.406;10.008;2022-10-31T03:28:35;11.15;;;3.42;;
74347;SDS011;62778;50.406;10.008;2022-10-31T03:29:34;12.27;;;3.70;;
74347;SDS011;62778;50.406;10.008;2022-10-31T03:30:31;9.05;;;3.72;;
74347;SDS011;62778;50.406;10.008;2022-10-31T03:31:29;9.30;;;3.45;;
74347;SDS011;62778;50.406;10.008;2022-10-31T03:32:29;9.63;;;3.28;;
74347;SDS011;62778;50.406;10.008;2022-10-31T03:33:27;8.93;;;3.58;;
74347;SDS011;62778;50.406;10.008;2022-10-31T03:34:24;7.73;;;3.33;;
74347;SDS011;62778;50.406;10.008;2022-10-31T03:35:20;9.88;;;3.22;;
74347;SDS011;62778;50.406;10.008;2022-10-31T03:36:17;10.25;;;3.60;;
74347;SDS011;62778;50.406;10.008;2022-10-31T03:37:14;6.87;;;3.10;;
74347;SDS011;62778;50.406;10.008;2022-10-31T03:38:12;8.15;;;3.40;;
74347;SDS011;62778;50.406;10.008;2022-10-31T03:39:10;8.20;;;3.22;;
74347;SDS011;62778;50.406;10.008;2022-10-31T03:40:08;9.57;;;3.53;;
74347;SDS011;62778;50.406;10.008;2022-10-31T03:41:05;9.55;;;3.63;;
74347;SDS011;62778;50.406;10.008;2022-10-31T03:42:07;8.68;;;3.33;;
74347;SDS011;62778;50.406;10.008;2022-10-31T03:43:07;10.13;;;3.80;;
74347;SDS011;62778;50.406;10.008;2022-10-31T03:44:10;9.25;;;3.60;;
74347;SDS011;62778;50.406;10.008;2022-10-31T03:45:09;10.02;;;3.72;;
74347;SDS011;62778;50.406;10.008;2022-10-31T03:46:08;9.82;;;4.13;;
74347;SDS011;62778;50.406;10.008;2022-10-31T03:47:03;11.97;;;4.03;;
74347;SDS011;62778;50.406;10.008;2022-10-31T03:47:59;8.63;;;3.70;;
74347;SDS011;62778;50.406;10.008;2022-10-31T03:48:54;9.53;;;3.43;;
74347;SDS011;62778;50.406;10.008;2022-10-31T03:49:50;10.37;;;3.80;;
74347;SDS011;62778;50.406;10.008;2022-10-31T03:50:50;9.43;;;3.78;;
74347;SDS011;62778;50.406;10.008;2022-10-31T03:51:56;9.30;;;4.28;;
74347;SDS011;62778;50.406;10.008;2022-10-31T03:53:04;9.85;;;4.40;;
74347;SDS011;62778;50.406;10.008;2022-10-31T03:54:32;9.27;;;4.25;;
74347;SDS011;62778;50.406;10.008;2022-10-31T03:55:33;9.47;;;4.10;;
74347;SDS011;62778;50.406;10.008;2022-10-31T03:56:35;9.60;;;3.97;;
74347;SDS011;62778;50.406;10.008;2022-10-31T03:57:41;9.38;;;3.35;;
74347;SDS011;62778;50.406;10.008;2022-10-31T03:58:43;10.27;;;4.28;;
74347;SDS011;62778;50.406;10.008;2022-10-31T03:59:50;10.20;;;4.20;;
74347;SDS011;62778;50.406;10.008;2022-10-31T04:00:47;9.15;;;4.03;;
74347;SDS011;62778;50.406;10.008;2022-10-31T04:01:47;13.02;;;4.28;;
74347;SDS011;62778;50.406;10.008;2022-10-31T04:02:49;10.25;;;4.07;;
74347;SDS011;62778;50.406;10.008;2022-10-31T04:03:48;13.50;;;4.43;;
74347;SDS011;62778;50.406;10.008;2022-10-31T04:04:44;10.33;;;4.23;;
74347;SDS011;62778;50.406;10.008;2022-10-31T04:05:41;10.20;;;4.20;;
74347;SDS011;62778;50.406;10.008;2022-10-31T04:06:38;11.23;;;4.03;;
74347;SDS011;62778;50.406;10.008;2022-10-31T04:07:36;11.55;;;3.97;;
74347;SDS011;62778;50.406;10.008;2022-10-31T04:08:36;12.60;;;4.00;;
74347;SDS011;62778;50.406;10.008;2022-10-31T04:09:35;10.15;;;3.88;;
74347;SDS011;62778;50.406;10.008;2022-10-31T04:10:31;12.35;;;3.85;;
74347;SDS011;62778;50.406;10.008;2022-10-31T04:11:29;8.85;;;3.83;;
74347;SDS011;62778;50.406;10.008;2022-10-31T04:12:26;10.17;;;3.93;;
74347;SDS011;62778;50.406;10.008;2022-10-31T04:13:25;7.40;;;3.50;;
74347;SDS011;62778;50.406;10.008;2022-10-31T04:14:23;9.25;;;3.30;;
74347;SDS011;62778;50.406;10.008;2022-10-31T04:15:20;8.70;;;4.03;;
74347;SDS011;62778;50.406;10.008;2022-10-31T04:16:16;9.02;;;3.33;;
74347;SDS011;62778;50.406;10.008;2022-10-31T04:17:12;10.33;;;3.40;;
74347;SDS011;62778;50.406;10.008;2022-10-31T04:18:10;9.15;;;3.55;;
74347;SDS011;62778;50.406;10.008;2022-10-31T04:19:05;8.80;;;3.28;;
74347;SDS011;62778;50.406;10.008;2022-10-31T04:20:00;10.50;;;3.53;;
74347;SDS011;62778;50.406;10.008;2022-10-31T04:21:03;8.77;;;3.53;;
74347;SDS011;62778;50.406;10.008;2022-10-31T04:22:00;8.38;;;3.55;;
74347;SDS011;62778;50.406;10.008;2022-10-31T04:22:55;11.27;;;4.05;;
74347;SDS011;62778;50.406;10.008;2022-10-31T04:23:50;12.43;;;4.70;;
74347;SDS011;62778;50.406;10.008;2022-10-31T04:24:46;10.67;;;4.33;;
74347;SDS011;62778;50.406;10.008;2022-10-31T04:25:41;10.13;;;4.10;;
74347;SDS011;62778;50.406;10.008;2022-10-31T04:26:36;11.82;;;4.32;;
74347;SDS011;62778;50.406;10.008;2022-10-31T04:27:32;10.10;;;4.13;;
74347;SDS011;62778;50.406;10.008;2022-10-31T04:28:27;11.23;;;3.83;;
74347;SDS011;62778;50.406;10.008;2022-10-31T04:29:23;8.93;;;3.93;;
74347;SDS011;62778;50.406;10.008;2022-10-31T04:30:18;10.13;;;4.20;;
74347;SDS011;62778;50.406;10.008;2022-10-31T04:31:13;11.80;;;4.40;;
74347;SDS011;62778;50.406;10.008;2022-10-31T04:32:09;7.70;;;3.63;;
74347;SDS011;62778;50.406;10.008;2022-10-31T04:33:04;9.93;;;3.47;;
74347;SDS011;62778;50.406;10.008;2022-10-31T04:33:59;9.63;;;4.03;;
74347;SDS011;62778;50.406;10.008;2022-10-31T04:34:55;9.23;;;3.73;;
74347;SDS011;62778;50.406;10.008;2022-10-31T04:35:50;8.13;;;3.73;;
74347;SDS011;62778;50.406;10.008;2022-10-31T04:36:45;9.70;;;4.13;;
74347;SDS011;62778;50.406;10.008;2022-10-31T04:37:41;9.67;;;4.23;;
74347;SDS011;62778;50.406;10.008;2022-10-31T04:38:36;8.77;;;3.22;;
74347;SDS011;62778;50.406;10.008;2022-10-31T04:39:31;9.33;;;3.90;;
74347;SDS011;62778;50.406;10.008;2022-10-31T04:40:27;8.67;;;3.70;;
74347;SDS011;62778;50.406;10.008;2022-10-31T04:41:22;8.27;;;3.70;;
74347;SDS011;62778;50.406;10.008;2022-10-31T04:42:17;8.80;;;3.17;;
74347;SDS011;62778;50.406;10.008;2022-10-31T04:43:13;7.67;;;3.03;;
74347;SDS011;62778;50.406;10.008;2022-10-31T04:44:08;9.53;;;3.53;;
74347;SDS011;62778;50.406;10.008;2022-10-31T04:45:03;7.90;;;3.50;;
74347;SDS011;62778;50.406;10.008;2022-10-31T04:45:59;11.02;;;3.80;;
74347;SDS011;62778;50.406;10.008;2022-10-31T04:46:54;10.80;;;3.60;;
74347;SDS011;62778;50.406;10.008;2022-10-31T04:47:50;9.10;;;3.50;;
74347;SDS011;62778;50.406;10.008;2022-10-31T04:48:45;9.98;;;3.65;;
74347;SDS011;62778;50.406;10.008;2022-10-31T04:49:41;9.37;;;3.40;;
74347;SDS011;62778;50.406;10.008;2022-10-31T04:50:36;10.13;;;3.67;;
74347;SDS011;62778;50.406;10.008;2022-10-31T04:51:31;10.63;;;3.40;;
74347;SDS011;62778;50.406;10.008;2022-10-31T04:52:27;10.27;;;3.70;;
74347;SDS011;62778;50.406;10.008;2022-10-31T04:53:22;9.55;;;3.42;;
74347;SDS011;62778;50.406;10.008;2022-10-31T04:54:17;9.27;;;3.67;;
74347;SDS011;62778;50.406;10.008;2022-10-31T04:55:13;9.30;;;3.37;;
74347;SDS011;62778;50.406;10.008;2022-10-31T04:56:09;9.05;;;3.17;;
74347;SDS011;62778;50.406;10.008;2022-10-31T04:57:04;9.47;;;2.97;;
74347;SDS011;62778;50.406;10.008;2022-10-31T04:57:59;8.53;;;3.10;;
74347;SDS011;62778;50.406;10.008;2022-10-31T04:58:55;10.10;;;3.03;;
74347;SDS011;62778;50.406;10.008;2022-10-31T04:59:50;11.67;;;3.47;;
74347;SDS011;62778;50.406;10.008;2022-10-31T05:00:45;9.20;;;3.30;;
74347;SDS011;62778;50.406;10.008;2022-10-31T05:01:41;10.13;;;3.27;;
74347;SDS011;62778;50.406;10.008;2022-10-31T05:02:42;11.15;;;3.70;;
74347;SDS011;62778;50.406;10.008;2022-10-31T05:03:41;8.87;;;3.27;;
74347;SDS011;62778;50.406;10.008;2022-10-31T05:04:37;8.38;;;3.15;;
74347;SDS011;62778;50.406;10.008;2022-10-31T05:05:35;8.35;;;2.70;;
74347;SDS011;62778;50.406;10.008;2022-10-31T05:06:30;10.20;;;2.93;;
74347;SDS011;62778;50.406;10.008;2022-10-31T05:07:25;11.47;;;4.20;;
74347;SDS011;62778;50.406;10.008;2022-10-31T05:08:21;9.80;;;3.37;;
74347;SDS011;62778;50.406;10.008;2022-10-31T05:09:16;10.95;;;3.20;;
74347;SDS011;62778;50.406;10.008;2022-10-31T05:10:13;11.00;;;4.20;;
74347;SDS011;62778;50.406;10.008;2022-10-31T05:11:10;11.40;;;3.90;;
74347;SDS011;62778;50.406;10.008;2022-10-31T05:12:05;12.17;;;4.00;;
74347;SDS011;62778;50.406;10.008;2022-10-31T05:13:01;15.43;;;3.50;;
74347;SDS011;62778;50.406;10.008;2022-10-31T05:13:57;9.47;;;3.60;;
74347;SDS011;62778;50.406;10.008;2022-10-31T05:14:52;10.43;;;3.20;;
74347;SDS011;62778;50.406;10.008;2022-10-31T05:15:49;9.07;;;3.47;;
74347;SDS011;62778;50.406;10.008;2022-10-31T05:16:44;8.15;;;2.80;;
74347;SDS011;62778;50.406;10.008;2022-10-31T05:17:39;8.27;;;3.20;;
74347;SDS011;62778;50.406;10.008;2022-10-31T05:18:35;6.63;;;2.70;;
74347;SDS011;62778;50.406;10.008;2022-10-31T05:19:30;10.73;;;3.30;;
74347;SDS011;62778;50.406;10.008;2022-10-31T05:20:27;9.32;;;3.88;;
74347;SDS011;62778;50.406;10.008;2022-10-31T05:21:23;11.30;;;3.33;;
74347;SDS011;62778;50.406;10.008;2022-10-31T05:22:18;10.48;;;3.03;;
74347;SDS011;62778;50.406;10.008;2022-10-31T05:23:14;9.37;;;3.03;;
74347;SDS011;62778;50.406;10.008;2022-10-31T05:24:09;11.83;;;3.30;;
74347;SDS011;62778;50.406;10.008;2022-10-31T05:25:05;7.97;;;2.57;;
74347;SDS011;62778;50.406;10.008;2022-10-31T05:26:00;8.60;;;2.60;;
74347;SDS011;62778;50.406;10.008;2022-10-31T05:26:55;11.23;;;3.10;;
74347;SDS011;62778;50.406;10.008;2022-10-31T05:27:51;10.03;;;3.20;;
74347;SDS011;62778;50.406;10.008;2022-10-31T05:28:47;10.73;;;3.50;;
74347;SDS011;62778;50.406;10.008;2022-10-31T05:29:42;11.95;;;3.50;;
74347;SDS011;62778;50.406;10.008;2022-10-31T05:30:37;11.53;;;3.50;;
74347;SDS011;62778;50.406;10.008;2022-10-31T05:31:33;10.07;;;3.50;;
74347;SDS011;62778;50.406;10.008;2022-10-31T05:32:28;9.80;;;3.57;;
74347;SDS011;62778;50.406;10.008;2022-10-31T05:33:24;13.27;;;3.45;;
74347;SDS011;62778;50.406;10.008;2022-10-31T05:34:19;9.40;;;3.40;;
74347;SDS011;62778;50.406;10.008;2022-10-31T05:35:16;10.80;;;3.60;;
74347;SDS011;62778;50.406;10.008;2022-10-31T05:36:14;13.30;;;3.67;;
74347;SDS011;62778;50.406;10.008;2022-10-31T05:37:09;12.52;;;3.60;;
74347;SDS011;62778;50.406;10.008;2022-10-31T05:38:04;9.87;;;3.40;;
74347;SDS011;62778;50.406;10.008;2022-10-31T05:39:00;10.63;;;3.67;;
74347;SDS011;62778;50.406;10.008;2022-10-31T05:39:55;11.37;;;3.40;;
74347;SDS011;62778;50.406;10.008;2022-10-31T05:40:53;12.03;;;3.90;;
74347;SDS011;62778;50.406;10.008;2022-10-31T05:41:52;12.25;;;3.55;;
74347;SDS011;62778;50.406;10.008;2022-10-31T05:42:50;11.47;;;3.50;;
74347;SDS011;62778;50.406;10.008;2022-10-31T05:43:46;16.00;;;3.90;;
74347;SDS011;62778;50.406;10.008;2022-10-31T05:44:41;10.73;;;3.30;;
74347;SDS011;62778;50.406;10.008;2022-10-31T05:45:36;11.17;;;3.67;;
74347;SDS011;62778;50.406;10.008;2022-10-31T05:46:32;9.03;;;3.23;;
74347;SDS011;62778;50.406;10.008;2022-10-31T05:47:27;11.00;;;2.90;;
74347;SDS011;62778;50.406;10.008;2022-10-31T05:48:22;8.17;;;2.80;;
74347;SDS011;62778;50.406;10.008;2022-10-31T05:49:18;7.97;;;2.85;;
74347;SDS011;62778;50.406;10.008;2022-10-31T05:50:13;8.80;;;3.00;;
74347;SDS011;62778;50.406;10.008;2022-10-31T05:51:08;9.53;;;2.67;;
74347;SDS011;62778;50.406;10.008;2022-10-31T05:52:04;14.20;;;3.50;;
74347;SDS011;62778;50.406;10.008;2022-10-31T05:53:00;11.43;;;3.25;;
74347;SDS011;62778;50.406;10.008;2022-10-31T05:53:57;7.93;;;2.67;;
74347;SDS011;62778;50.406;10.008;2022-10-31T05:54:52;10.02;;;3.33;;
74347;SDS011;62778;50.406;10.008;2022-10-31T05:55:48;9.87;;;3.17;;
74347;SDS011;62778;50.406;10.008;2022-10-31T05:56:43;7.40;;;2.57;;
74347;SDS011;62778;50.406;10.008;2022-10-31T05:57:38;8.03;;;2.60;;
74347;SDS011;62778;50.406;10.008;2022-10-31T05:58:34;7.83;;;2.63;;
74347;SDS011;62778;50.406;10.008;2022-10-31T05:59:29;9.93;;;3.17;;
74347;SDS011;62778;50.406;10.008;2022-10-31T06:00:25;11.13;;;3.23;;
74347;SDS011;62778;50.406;10.008;2022-10-31T06:01:20;10.83;;;3.23;;
74347;SDS011;62778;50.406;10.008;2022-10-31T06:02:15;9.90;;;3.30;;
74347;SDS011;62778;50.406;10.008;2022-10-31T06:03:11;10.13;;;3.40;;
74347;SDS011;62778;50.406;10.008;2022-10-31T06:04:06;11.30;;;3.47;;
74347;SDS011;62778;50.406;10.008;2022-10-31T06:05:02;9.97;;;3.17;;